Time;durP1;ratioP1;P1;durP2;ratioP2;P2;SDS_P1;SDS_P2;PMS_P1;PMS_P2;Temp;Humidity;BMP_temperature;BMP_pressure;BME280_temperature;BME280_humidity;BME280_pressure;Samples;Min_cycle;Max_cycle;Signal;HPM_P1;HPM_P2
2021/11/13 00:00:00;;;;;;;16.92;5.38;;;;;;;;;;2045719;28;20043;-82
2021/11/13 00:01:19;;;;;;;21.20;4.85;;;;;;;;;;2043105;28;20024;-82
2021/11/13 00:02:38;;;;;;;14.98;5.18;;;;;;;;;;2046936;28;20035;-81
2021/11/13 00:03:57;;;;;;;13.77;5.78;;;;;;;;;;2047114;28;20036;-82
2021/11/13 00:05:16;;;;;;;19.00;5.55;;;;;;;;;;2047033;28;20090;-82
2021/11/13 00:06:35;;;;;;;13.88;4.80;;;;;;;;;;2044918;28;20031;-82
2021/11/13 00:07:54;;;;;;;11.13;4.68;;;;;;;;;;2046962;28;20039;-82
2021/11/13 00:09:14;;;;;;;16.23;5.53;;;;;;;;;;2043641;28;20110;-82
2021/11/13 00:10:33;;;;;;;9.15;4.55;;;;;;;;;;2046036;28;20106;-81
2021/11/13 00:11:52;;;;;;;12.10;5.20;;;;;;;;;;2047068;28;20027;-81
2021/11/13 00:13:11;;;;;;;11.85;5.30;;;;;;;;;;2045387;28;20047;-82
2021/11/13 00:14:30;;;;;;;9.55;5.00;;;;;;;;;;2050548;28;20551;-82
2021/11/13 00:15:50;;;;;;;11.05;5.13;;;;;;;;;;2042181;28;20438;-82
2021/11/13 00:17:09;;;;;;;6.65;4.72;;;;;;;;;;2048324;28;20031;-82
2021/11/13 00:18:27;;;;;;;7.25;4.55;;;;;;;;;;2044785;28;20067;-82
2021/11/13 00:19:46;;;;;;;9.32;4.93;;;;;;;;;;2047499;29;20036;-82
2021/11/13 00:21:05;;;;;;;10.50;5.18;;;;;;;;;;2048669;28;20099;-81
2021/11/13 00:22:27;;;;;;;7.93;5.53;;;;;;;;;;2051074;28;20515;-81
2021/11/13 00:23:45;;;;;;;12.27;5.30;;;;;;;;;;2047657;28;20732;-81
2021/11/13 00:25:05;;;;;;;12.73;5.13;;;;;;;;;;2051808;28;20025;-81
2021/11/13 00:26:23;;;;;;;8.00;4.70;;;;;;;;;;2046401;28;20032;-81
2021/11/13 00:27:43;;;;;;;16.65;5.28;;;;;;;;;;2044804;28;20135;-81
2021/11/13 00:29:02;;;;;;;12.10;5.47;;;;;;;;;;2046897;28;20023;-82
2021/11/13 00:30:20;;;;;;;14.90;5.78;;;;;;;;;;2043994;28;20028;-81
2021/11/13 00:31:39;;;;;;;14.10;5.25;;;;;;;;;;2051498;28;20027;-81
2021/11/13 00:32:58;;;;;;;13.50;5.25;;;;;;;;;;2046195;28;20035;-82
2021/11/13 00:34:17;;;;;;;15.32;5.85;;;;;;;;;;2048672;28;20031;-82
2021/11/13 00:35:36;;;;;;;9.35;5.50;;;;;;;;;;2050241;28;20035;-82
2021/11/13 00:36:55;;;;;;;12.55;5.10;;;;;;;;;;2045929;28;20027;-81
2021/11/13 00:38:14;;;;;;;9.55;5.15;;;;;;;;;;2047109;28;20031;-81
2021/11/13 00:39:33;;;;;;;16.25;5.65;;;;;;;;;;2044087;29;20043;-81
2021/11/13 00:40:52;;;;;;;8.00;4.93;;;;;;;;;;2043849;28;20035;-81
2021/11/13 00:42:11;;;;;;;11.93;5.10;;;;;;;;;;2047500;28;20198;-81
2021/11/13 00:43:30;;;;;;;15.20;5.32;;;;;;;;;;2042324;28;20051;-81
2021/11/13 00:44:49;;;;;;;13.10;5.47;;;;;;;;;;2044839;28;20031;-81
2021/11/13 00:46:08;;;;;;;12.93;5.95;;;;;;;;;;2046727;28;20019;-81
2021/11/13 00:47:27;;;;;;;15.45;5.57;;;;;;;;;;2051511;28;20031;-81
2021/11/13 00:48:46;;;;;;;7.63;5.10;;;;;;;;;;2047681;28;20035;-81
2021/11/13 00:50:06;;;;;;;18.83;5.78;;;;;;;;;;2046758;28;20106;-82
2021/11/13 00:51:25;;;;;;;12.00;6.22;;;;;;;;;;2041218;28;20126;-82
2021/11/13 00:52:44;;;;;;;14.05;6.00;;;;;;;;;;2042830;28;20027;-82
2021/11/13 00:54:04;;;;;;;11.68;6.15;;;;;;;;;;2052319;28;20525;-82
2021/11/13 00:55:23;;;;;;;10.25;5.93;;;;;;;;;;2045831;28;20027;-81
2021/11/13 00:56:42;;;;;;;12.68;6.32;;;;;;;;;;2048037;28;20027;-81
2021/11/13 00:58:01;;;;;;;13.07;5.57;;;;;;;;;;2047786;28;20035;-81
2021/11/13 00:59:20;;;;;;;11.73;5.60;;;;;;;;;;2047936;28;20031;-81
2021/11/13 01:00:38;;;;;;;13.10;5.90;;;;;;;;;;2046476;28;20023;-82
2021/11/13 01:01:58;;;;;;;16.25;7.30;;;;;;;;;;2043609;29;20570;-82
2021/11/13 01:03:17;;;;;;;14.82;6.40;;;;;;;;;;2043392;28;20071;-82
2021/11/13 01:04:36;;;;;;;12.98;6.20;;;;;;;;;;2040284;29;20035;-82
2021/11/13 01:05:55;;;;;;;11.43;6.60;;;;;;;;;;2042962;28;20032;-82
2021/11/13 01:07:14;;;;;;;17.33;7.40;;;;;;;;;;2047241;28;20027;-81
2021/11/13 01:08:33;;;;;;;16.23;6.57;;;;;;;;;;2043866;28;20023;-82
2021/11/13 01:09:52;;;;;;;12.27;6.35;;;;;;;;;;2043986;28;20499;-82
2021/11/13 01:11:11;;;;;;;15.75;7.32;;;;;;;;;;2046476;28;20039;-82
2021/11/13 01:12:30;;;;;;;8.77;6.22;;;;;;;;;;2048528;28;20643;-82
2021/11/13 01:13:49;;;;;;;23.20;7.68;;;;;;;;;;2042456;28;20071;-82
2021/11/13 01:15:09;;;;;;;19.77;6.63;;;;;;;;;;2047150;28;20055;-82
2021/11/13 01:16:28;;;;;;;11.35;6.75;;;;;;;;;;2050330;28;20031;-81
2021/11/13 01:17:48;;;;;;;11.40;5.97;;;;;;;;;;2047054;28;20035;-81
2021/11/13 01:19:07;;;;;;;11.85;5.68;;;;;;;;;;2044081;28;20027;-81
2021/11/13 01:20:29;;;;;;;7.70;5.85;;;;;;;;;;2040071;28;20027;-82
2021/11/13 01:21:48;;;;;;;8.88;5.95;;;;;;;;;;2041240;28;20031;-81
2021/11/13 01:23:07;;;;;;;9.73;5.45;;;;;;;;;;2045334;28;20023;-81
2021/11/13 01:24:26;;;;;;;9.00;5.60;;;;;;;;;;2047772;28;20062;-81
2021/11/13 01:25:45;;;;;;;9.95;6.13;;;;;;;;;;2045491;29;20031;-82
2021/11/13 01:27:04;;;;;;;11.95;5.68;;;;;;;;;;2048437;28;20024;-82
2021/11/13 01:28:23;;;;;;;7.90;5.65;;;;;;;;;;2065753;28;20058;-81
2021/11/13 01:29:42;;;;;;;8.07;5.30;;;;;;;;;;2044145;28;20035;-81
2021/11/13 01:31:02;;;;;;;12.48;5.68;;;;;;;;;;2044416;28;20480;-81
2021/11/13 01:32:21;;;;;;;13.15;5.65;;;;;;;;;;2054821;28;20389;-81
2021/11/13 01:33:41;;;;;;;11.52;5.90;;;;;;;;;;2047316;28;20035;-82
2021/11/13 01:35:00;;;;;;;6.35;5.75;;;;;;;;;;2045159;28;20514;-81
2021/11/13 01:36:19;;;;;;;9.27;5.28;;;;;;;;;;2043978;29;20511;-81
2021/11/13 01:37:38;;;;;;;8.88;5.15;;;;;;;;;;2042761;29;20027;-82
2021/11/13 01:38:56;;;;;;;7.90;6.18;;;;;;;;;;2049924;28;20042;-81
2021/11/13 01:40:16;;;;;;;11.20;5.45;;;;;;;;;;2046101;28;20023;-81
2021/11/13 01:41:36;;;;;;;9.82;5.70;;;;;;;;;;2044276;28;20031;-82
2021/11/13 01:42:55;;;;;;;11.30;5.68;;;;;;;;;;2049275;28;20019;-81
2021/11/13 01:44:13;;;;;;;13.77;6.00;;;;;;;;;;2043719;28;20059;-81
2021/11/13 01:45:33;;;;;;;7.35;5.05;;;;;;;;;;2045318;28;20459;-81
2021/11/13 01:46:51;;;;;;;14.45;5.57;;;;;;;;;;2045958;28;20031;-81
2021/11/13 01:48:10;;;;;;;10.52;5.82;;;;;;;;;;2052061;28;20395;-81
2021/11/13 01:49:29;;;;;;;7.35;5.25;;;;;;;;;;2046957;28;20043;-81
2021/11/13 01:50:48;;;;;;;9.07;5.82;;;;;;;;;;2041600;28;20035;-81
2021/11/13 01:52:08;;;;;;;7.15;5.57;;;;;;;;;;2048835;28;20036;-81
2021/11/13 01:53:28;;;;;;;9.23;5.22;;;;;;;;;;2049930;28;20043;-81
2021/11/13 01:54:47;;;;;;;9.88;5.07;;;;;;;;;;2049898;28;20043;-81
2021/11/13 01:56:06;;;;;;;5.78;4.95;;;;;;;;;;2084821;28;20032;-81
2021/11/13 01:57:32;;;;;;;8.38;4.93;;;;;;;;;;2059740;28;20059;-81
2021/11/13 01:58:55;;;;;;;10.10;4.93;;;;;;;;;;2045376;28;20031;-81
2021/11/13 02:00:20;;;;;;;6.32;4.93;;;;;;;;;;2044047;28;20411;-81
2021/11/13 02:01:39;;;;;;;9.48;4.60;;;;;;;;;;2052234;28;20043;-81
2021/11/13 02:02:58;;;;;;;7.10;4.63;;;;;;;;;;2045286;28;20015;-81
2021/11/13 02:04:16;;;;;;;10.73;5.40;;;;;;;;;;2044652;28;20032;-81
2021/11/13 02:05:35;;;;;;;8.00;5.18;;;;;;;;;;2044016;28;20495;-81
2021/11/13 02:06:54;;;;;;;5.22;4.82;;;;;;;;;;2047307;28;20096;-81
2021/11/13 02:08:13;;;;;;;8.50;4.57;;;;;;;;;;2044663;28;20063;-81
2021/11/13 02:09:32;;;;;;;8.50;5.50;;;;;;;;;;2050434;28;20035;-81
2021/11/13 02:10:50;;;;;;;8.70;4.72;;;;;;;;;;2047394;28;20027;-80
2021/11/13 02:12:09;;;;;;;8.40;4.50;;;;;;;;;;2049534;28;20029;-81
2021/11/13 02:13:28;;;;;;;8.98;4.32;;;;;;;;;;2044466;28;20479;-81
2021/11/13 02:14:47;;;;;;;7.20;4.60;;;;;;;;;;2050276;28;20039;-81
2021/11/13 02:16:08;;;;;;;8.73;4.90;;;;;;;;;;2046236;28;20414;-81
2021/11/13 02:17:27;;;;;;;6.55;4.63;;;;;;;;;;2052358;28;20484;-81
2021/11/13 02:18:46;;;;;;;14.00;5.25;;;;;;;;;;2047660;29;20023;-81
2021/11/13 02:20:16;;;;;;;10.23;4.63;;;;;;;;;;2058583;28;20029;-81
2021/11/13 02:21:35;;;;;;;19.63;6.38;;;;;;;;;;2052170;28;20031;-81
2021/11/13 02:22:55;;;;;;;8.88;4.32;;;;;;;;;;2046131;28;20031;-81
2021/11/13 02:24:14;;;;;;;5.63;5.05;;;;;;;;;;2046109;28;20043;-81
2021/11/13 02:25:33;;;;;;;10.90;5.95;;;;;;;;;;2041337;28;20043;-81
2021/11/13 02:26:53;;;;;;;6.63;5.35;;;;;;;;;;2046096;28;20218;-80
2021/11/13 02:28:15;;;;;;;12.20;5.50;;;;;;;;;;2049768;28;20503;-81
2021/11/13 02:29:35;;;;;;;10.70;6.20;;;;;;;;;;2043937;28;20052;-80
2021/11/13 02:30:56;;;;;;;6.32;5.07;;;;;;;;;;2045412;28;20027;-81
2021/11/13 02:32:15;;;;;;;7.05;4.72;;;;;;;;;;2052196;28;20043;-81
2021/11/13 02:33:34;;;;;;;7.30;5.15;;;;;;;;;;2054304;28;20067;-81
2021/11/13 02:34:53;;;;;;;7.05;5.05;;;;;;;;;;2052621;28;20066;-80
2021/11/13 02:36:12;;;;;;;7.80;4.80;;;;;;;;;;2046424;28;20040;-81
2021/11/13 02:37:31;;;;;;;13.75;5.43;;;;;;;;;;2045174;28;20050;-81
2021/11/13 02:38:54;;;;;;;5.40;4.95;;;;;;;;;;2053865;28;20031;-80
2021/11/13 02:40:14;;;;;;;8.63;5.22;;;;;;;;;;2049236;28;20032;-81
2021/11/13 02:41:33;;;;;;;8.48;4.82;;;;;;;;;;2048297;28;20031;-81
2021/11/13 02:42:53;;;;;;;7.65;5.25;;;;;;;;;;2053133;28;20043;-81
2021/11/13 02:44:13;;;;;;;6.47;4.93;;;;;;;;;;2049839;28;20495;-82
2021/11/13 02:45:32;;;;;;;9.00;5.10;;;;;;;;;;2047606;28;20039;-81
2021/11/13 02:46:52;;;;;;;9.70;4.55;;;;;;;;;;2048700;28;20035;-81
2021/11/13 02:48:11;;;;;;;6.32;5.07;;;;;;;;;;2048982;28;20054;-81
2021/11/13 02:49:30;;;;;;;12.45;5.82;;;;;;;;;;2044456;28;20063;-81
2021/11/13 02:50:49;;;;;;;8.35;5.70;;;;;;;;;;2040482;28;20035;-81
2021/11/13 02:52:08;;;;;;;19.52;6.05;;;;;;;;;;2046440;28;20035;-82
2021/11/13 02:53:28;;;;;;;8.13;5.70;;;;;;;;;;2047545;28;20027;-81
2021/11/13 02:54:48;;;;;;;8.85;5.97;;;;;;;;;;2043509;28;20031;-81
2021/11/13 02:56:08;;;;;;;9.50;5.30;;;;;;;;;;2046260;28;20032;-81
2021/11/13 02:57:27;;;;;;;10.70;4.75;;;;;;;;;;2044293;28;20039;-81
2021/11/13 02:58:46;;;;;;;12.27;5.32;;;;;;;;;;2051509;28;20039;-81
2021/11/13 03:00:05;;;;;;;8.23;5.13;;;;;;;;;;2051247;28;20031;-81
2021/11/13 03:01:24;;;;;;;6.72;5.32;;;;;;;;;;2044279;28;20047;-81
2021/11/13 03:02:44;;;;;;;5.72;5.10;;;;;;;;;;2048341;28;20035;-81
2021/11/13 03:04:03;;;;;;;10.70;5.50;;;;;;;;;;2051132;28;20035;-81
2021/11/13 03:05:27;;;;;;;7.35;5.03;;;;;;;;;;2049894;28;20035;-81
2021/11/13 03:06:46;;;;;;;6.30;4.95;;;;;;;;;;2041911;28;20122;-81
2021/11/13 03:08:05;;;;;;;7.55;4.28;;;;;;;;;;2048545;28;20024;-82
2021/11/13 03:09:24;;;;;;;8.95;5.25;;;;;;;;;;2044521;28;20112;-81
2021/11/13 03:10:42;;;;;;;8.60;5.60;;;;;;;;;;2044433;29;20039;-82
2021/11/13 03:12:02;;;;;;;10.15;5.18;;;;;;;;;;2044634;28;20039;-82
2021/11/13 03:13:21;;;;;;;8.68;4.78;;;;;;;;;;2045528;28;20044;-81
2021/11/13 03:14:40;;;;;;;7.22;4.93;;;;;;;;;;2054336;28;20028;-82
2021/11/13 03:16:00;;;;;;;5.95;4.97;;;;;;;;;;2047131;28;20035;-82
2021/11/13 03:17:19;;;;;;;9.38;4.78;;;;;;;;;;2052408;28;20035;-82
2021/11/13 03:18:38;;;;;;;7.32;4.40;;;;;;;;;;2051272;28;20035;-81
2021/11/13 03:19:57;;;;;;;12.23;5.85;;;;;;;;;;2052685;28;20039;-82
2021/11/13 03:21:16;;;;;;;9.00;5.68;;;;;;;;;;2046206;28;20047;-81
2021/11/13 03:22:36;;;;;;;13.52;6.10;;;;;;;;;;2053117;28;20049;-82
2021/11/13 03:23:55;;;;;;;9.88;5.45;;;;;;;;;;2054421;28;20027;-82
2021/11/13 03:25:19;;;;;;;11.98;5.60;;;;;;;;;;2050283;28;20031;-81
2021/11/13 03:26:38;;;;;;;8.80;4.68;;;;;;;;;;2045510;28;20069;-81
2021/11/13 03:28:01;;;;;;;7.00;4.22;;;;;;;;;;2047552;28;20031;-82
2021/11/13 03:29:20;;;;;;;;;;;;;;;;;;2047463;28;20098;-82
2021/11/13 03:30:39;;;;;;;10.77;5.70;;;;;;;;;;2054922;28;19909;-82
2021/11/13 03:31:59;;;;;;;17.50;6.15;;;;;;;;;;2048284;28;20483;-81
2021/11/13 03:33:18;;;;;;;13.40;4.90;;;;;;;;;;2043578;28;20035;-81
2021/11/13 03:34:38;;;;;;;12.73;5.57;;;;;;;;;;2045168;28;20074;-81
2021/11/13 03:35:58;;;;;;;8.15;5.60;;;;;;;;;;2045224;28;20023;-81
2021/11/13 03:37:17;;;;;;;10.40;5.47;;;;;;;;;;2048044;28;20036;-81
2021/11/13 03:38:37;;;;;;;5.97;5.38;;;;;;;;;;2054941;28;20507;-81
2021/11/13 03:39:56;;;;;;;7.85;5.07;;;;;;;;;;2049217;28;20651;-82
2021/11/13 03:41:15;;;;;;;9.02;5.00;;;;;;;;;;2043090;28;20027;-81
2021/11/13 03:42:34;;;;;;;8.18;5.88;;;;;;;;;;2044851;28;20116;-82
2021/11/13 03:43:53;;;;;;;9.95;5.00;;;;;;;;;;2046579;28;20031;-82
2021/11/13 03:45:12;;;;;;;6.07;5.10;;;;;;;;;;2054763;28;20024;-82
2021/11/13 03:46:31;;;;;;;8.43;5.05;;;;;;;;;;2042482;28;20043;-82
2021/11/13 03:47:50;;;;;;;11.85;5.57;;;;;;;;;;2045547;28;20498;-82
2021/11/13 03:49:09;;;;;;;10.02;5.78;;;;;;;;;;2046192;28;20035;-81
2021/11/13 03:50:28;;;;;;;13.02;5.45;;;;;;;;;;2047028;28;20019;-82
2021/11/13 03:51:47;;;;;;;8.85;4.57;;;;;;;;;;2044590;28;20032;-81
2021/11/13 03:53:07;;;;;;;7.70;5.05;;;;;;;;;;2049834;28;20031;-81
2021/11/13 03:54:26;;;;;;;8.23;4.40;;;;;;;;;;2042867;28;20067;-81
2021/11/13 03:55:44;;;;;;;5.53;4.38;;;;;;;;;;2040322;28;20023;-82
2021/11/13 03:57:04;;;;;;;10.43;4.70;;;;;;;;;;2045661;28;20044;-81
2021/11/13 03:58:23;;;;;;;7.30;4.05;;;;;;;;;;2045235;28;20070;-81
2021/11/13 03:59:42;;;;;;;11.90;4.50;;;;;;;;;;2053604;28;20031;-81
2021/11/13 04:01:00;;;;;;;5.93;4.25;;;;;;;;;;2045320;28;20039;-81
2021/11/13 04:02:19;;;;;;;5.70;4.60;;;;;;;;;;2045937;28;20094;-81
2021/11/13 04:03:38;;;;;;;9.48;4.50;;;;;;;;;;2050595;28;20027;-81
2021/11/13 04:04:57;;;;;;;9.40;4.13;;;;;;;;;;2047061;28;20027;-82
2021/11/13 04:06:16;;;;;;;6.03;3.88;;;;;;;;;;2044780;28;20108;-82
2021/11/13 04:07:35;;;;;;;7.63;4.22;;;;;;;;;;2042828;28;20527;-81
2021/11/13 04:08:54;;;;;;;5.82;4.10;;;;;;;;;;2047699;28;20059;-82
2021/11/13 04:10:14;;;;;;;4.38;3.33;;;;;;;;;;2047604;28;20102;-81
2021/11/13 04:11:33;;;;;;;8.60;4.35;;;;;;;;;;2046945;28;20949;-82
2021/11/13 04:12:52;;;;;;;6.88;4.15;;;;;;;;;;2047755;28;20035;-82
2021/11/13 04:14:10;;;;;;;6.78;3.92;;;;;;;;;;2050886;28;20031;-82
2021/11/13 04:15:29;;;;;;;12.35;4.85;;;;;;;;;;2050184;28;20070;-82
2021/11/13 04:16:48;;;;;;;5.72;3.63;;;;;;;;;;2049450;28;20035;-82
2021/11/13 04:18:07;;;;;;;4.10;3.80;;;;;;;;;;2047554;28;20488;-81
2021/11/13 04:19:27;;;;;;;5.45;3.75;;;;;;;;;;2047799;28;20031;-81
2021/11/13 04:20:46;;;;;;;4.60;4.13;;;;;;;;;;2046972;28;20147;-81
2021/11/13 04:22:05;;;;;;;6.90;4.32;;;;;;;;;;2044711;28;20035;-81
2021/11/13 04:23:23;;;;;;;7.85;4.63;;;;;;;;;;2053474;28;20059;-81
2021/11/13 04:24:42;;;;;;;4.55;3.78;;;;;;;;;;2048182;28;20507;-81
2021/11/13 04:26:01;;;;;;;6.70;4.63;;;;;;;;;;2049540;28;20024;-81
2021/11/13 04:27:20;;;;;;;5.35;4.40;;;;;;;;;;2045677;28;20066;-81
2021/11/13 04:28:39;;;;;;;9.30;4.25;;;;;;;;;;2046960;28;20031;-81
2021/11/13 04:29:58;;;;;;;5.60;4.35;;;;;;;;;;2041922;28;20043;-81
2021/11/13 04:31:17;;;;;;;5.00;4.50;;;;;;;;;;2043875;28;20031;-81
2021/11/13 04:32:37;;;;;;;4.65;4.25;;;;;;;;;;2046557;28;20031;-82
2021/11/13 04:34:01;;;;;;;6.13;3.92;;;;;;;;;;2046510;28;20110;-81
2021/11/13 04:36:52;;;;;;;4.45;4.05;;;;;;;;;;2046681;28;20739;-80
2021/11/13 04:38:12;;;;;;;5.57;3.53;;;;;;;;;;2046253;28;20095;-81
2021/11/13 04:39:30;;;;;;;9.25;4.07;;;;;;;;;;2046509;28;20122;-80
2021/11/13 04:40:49;;;;;;;5.68;3.75;;;;;;;;;;2044445;28;20479;-81
2021/11/13 04:42:09;;;;;;;7.07;4.07;;;;;;;;;;2047918;28;20062;-80
2021/11/13 04:43:28;;;;;;;6.80;4.35;;;;;;;;;;2047849;28;20491;-81
2021/11/13 04:44:48;;;;;;;4.20;3.90;;;;;;;;;;2053928;28;20035;-81
2021/11/13 04:46:06;;;;;;;8.02;3.97;;;;;;;;;;2047291;28;20033;-80
2021/11/13 04:47:25;;;;;;;3.60;3.30;;;;;;;;;;2046789;28;20053;-80
2021/11/13 04:48:46;;;;;;;4.43;3.50;;;;;;;;;;2040755;28;20020;-80
2021/11/13 04:50:05;;;;;;;7.75;3.50;;;;;;;;;;2048017;28;20107;-83
2021/11/13 04:51:24;;;;;;;4.07;3.38;;;;;;;;;;2044665;29;20094;-82
2021/11/13 04:52:44;;;;;;;4.72;3.50;;;;;;;;;;2049887;28;20438;-82
2021/11/13 04:54:03;;;;;;;8.00;3.80;;;;;;;;;;2051774;28;20430;-80
2021/11/13 04:55:22;;;;;;;5.13;3.35;;;;;;;;;;2043900;28;20058;-81
2021/11/13 04:56:41;;;;;;;3.28;3.08;;;;;;;;;;2050068;28;20031;-81
2021/11/13 04:58:00;;;;;;;6.90;3.47;;;;;;;;;;2047095;28;20027;-80
2021/11/13 04:59:19;;;;;;;4.70;3.10;;;;;;;;;;2048968;28;20104;-81
2021/11/13 05:00:38;;;;;;;5.20;3.10;;;;;;;;;;2046623;28;20043;-81
2021/11/13 05:01:58;;;;;;;3.90;3.00;;;;;;;;;;2044870;28;20032;-81
2021/11/13 05:03:17;;;;;;;5.05;3.33;;;;;;;;;;2045764;28;20027;-81
2021/11/13 05:04:35;;;;;;;3.25;2.85;;;;;;;;;;2045526;28;20035;-81
2021/11/13 05:05:55;;;;;;;3.33;2.60;;;;;;;;;;2046594;28;20422;-81
2021/11/13 05:07:14;;;;;;;7.07;3.00;;;;;;;;;;2044030;28;20032;-81
2021/11/13 05:08:33;;;;;;;3.83;3.33;;;;;;;;;;2046731;29;20035;-81
2021/11/13 05:09:52;;;;;;;3.35;2.70;;;;;;;;;;2051064;28;20505;-81
2021/11/13 05:11:10;;;;;;;4.30;3.10;;;;;;;;;;2052964;28;20044;-81
2021/11/13 05:12:29;;;;;;;3.80;2.35;;;;;;;;;;2059913;28;20134;-81
2021/11/13 05:13:48;;;;;;;2.83;2.28;;;;;;;;;;2046438;28;20450;-82
2021/11/13 05:15:08;;;;;;;5.05;2.70;;;;;;;;;;2044023;28;20035;-81
2021/11/13 05:16:27;;;;;;;3.53;2.97;;;;;;;;;;2044882;28;20023;-81
2021/11/13 05:17:45;;;;;;;3.83;2.90;;;;;;;;;;2043934;28;20028;-81
2021/11/13 05:19:08;;;;;;;5.57;2.92;;;;;;;;;;2047000;28;20035;-82
2021/11/13 05:20:27;;;;;;;2.70;2.50;;;;;;;;;;2052974;28;20028;-82
2021/11/13 05:21:46;;;;;;;3.40;3.10;;;;;;;;;;2046861;28;20449;-82
2021/11/13 05:23:05;;;;;;;5.57;2.60;;;;;;;;;;2045640;28;20031;-79
2021/11/13 05:24:24;;;;;;;5.68;2.80;;;;;;;;;;2043618;28;20031;-82
2021/11/13 05:25:43;;;;;;;2.75;2.42;;;;;;;;;;2044745;29;20035;-82
2021/11/13 05:27:02;;;;;;;2.95;2.70;;;;;;;;;;2043900;28;20442;-81
2021/11/13 05:28:21;;;;;;;2.67;2.30;;;;;;;;;;2047860;28;20075;-82
2021/11/13 05:29:40;;;;;;;2.92;2.63;;;;;;;;;;2043470;28;20019;-82
2021/11/13 05:31:00;;;;;;;3.15;2.85;;;;;;;;;;2043771;28;20049;-81
2021/11/13 05:32:18;;;;;;;2.88;2.55;;;;;;;;;;2051823;28;20028;-82
2021/11/13 05:33:37;;;;;;;2.92;2.60;;;;;;;;;;2044762;28;20032;-82
2021/11/13 05:34:56;;;;;;;4.18;2.60;;;;;;;;;;2043632;28;20031;-82
2021/11/13 05:36:15;;;;;;;8.05;2.88;;;;;;;;;;2047517;29;20035;-82
2021/11/13 05:37:34;;;;;;;3.10;2.70;;;;;;;;;;2044593;28;20047;-82
2021/11/13 05:38:52;;;;;;;3.05;2.42;;;;;;;;;;2045331;28;20050;-82
2021/11/13 05:40:12;;;;;;;2.05;1.95;;;;;;;;;;2051248;28;20039;-82
2021/11/13 05:41:30;;;;;;;3.50;2.25;;;;;;;;;;2048092;29;20585;-82
2021/11/13 05:42:51;;;;;;;3.78;2.97;;;;;;;;;;2048493;28;20042;-81
2021/11/13 05:44:10;;;;;;;2.60;2.40;;;;;;;;;;2049338;28;20035;-82
2021/11/13 05:45:29;;;;;;;2.88;2.67;;;;;;;;;;2048384;28;20031;-82
2021/11/13 05:46:52;;;;;;;4.53;2.97;;;;;;;;;;2049220;28;20035;-81
2021/11/13 05:48:12;;;;;;;3.95;2.72;;;;;;;;;;2053036;28;20024;-82
2021/11/13 05:49:30;;;;;;;5.47;2.97;;;;;;;;;;2045480;28;20122;-82
2021/11/13 05:50:49;;;;;;;5.78;3.10;;;;;;;;;;2044368;29;20031;-82
2021/11/13 05:52:08;;;;;;;3.70;2.70;;;;;;;;;;2044156;28;20039;-82
2021/11/13 05:53:27;;;;;;;3.38;3.08;;;;;;;;;;2047126;28;20035;-81
2021/11/13 05:54:46;;;;;;;5.20;2.67;;;;;;;;;;2048412;28;20035;-82
2021/11/13 05:56:05;;;;;;;10.35;3.15;;;;;;;;;;2043168;29;20510;-82
2021/11/13 05:57:24;;;;;;;5.07;3.22;;;;;;;;;;2048550;28;20043;-81
2021/11/13 05:58:42;;;;;;;5.93;3.33;;;;;;;;;;2043256;28;20043;-82
2021/11/13 06:00:02;;;;;;;3.10;2.70;;;;;;;;;;2046638;28;20020;-82
2021/11/13 06:01:22;;;;;;;4.72;3.15;;;;;;;;;;2059687;28;20036;-82
2021/11/13 06:02:41;;;;;;;6.50;2.90;;;;;;;;;;2045761;28;20043;-82
2021/11/13 06:04:00;;;;;;;7.15;3.10;;;;;;;;;;2049023;28;20114;-82
2021/11/13 06:05:19;;;;;;;3.28;2.80;;;;;;;;;;2049467;28;20023;-81
2021/11/13 06:06:38;;;;;;;3.47;3.17;;;;;;;;;;2043852;28;20035;-81
2021/11/13 06:07:57;;;;;;;2.83;2.63;;;;;;;;;;2043306;28;20028;-82
2021/11/13 06:09:16;;;;;;;3.00;2.60;;;;;;;;;;2045800;28;20121;-80
2021/11/13 06:10:34;;;;;;;4.85;2.67;;;;;;;;;;2051628;28;20404;-81
2021/11/13 06:11:53;;;;;;;2.60;2.40;;;;;;;;;;2045965;29;20058;-82
2021/11/13 06:13:12;;;;;;;3.08;2.40;;;;;;;;;;2047403;28;20709;-82
2021/11/13 06:14:31;;;;;;;2.60;2.40;;;;;;;;;;2046852;28;20511;-82
2021/11/13 06:15:50;;;;;;;3.17;2.40;;;;;;;;;;2050102;28;20031;-81
2021/11/13 06:17:09;;;;;;;3.47;3.17;;;;;;;;;;2048206;28;20114;-81
2021/11/13 06:18:27;;;;;;;3.35;2.70;;;;;;;;;;2045250;28;20035;-81
2021/11/13 06:19:46;;;;;;;3.92;3.22;;;;;;;;;;2048386;29;20515;-81
2021/11/13 06:21:06;;;;;;;4.03;3.15;;;;;;;;;;2048997;28;20518;-81
2021/11/13 06:22:25;;;;;;;3.97;2.85;;;;;;;;;;2043318;28;20043;-81
2021/11/13 06:23:46;;;;;;;4.78;2.80;;;;;;;;;;2045590;28;20411;-81
2021/11/13 06:25:06;;;;;;;2.55;2.35;;;;;;;;;;2047137;29;20047;-82
2021/11/13 06:26:25;;;;;;;2.47;2.28;;;;;;;;;;2054744;28;20024;-80
2021/11/13 06:27:44;;;;;;;5.88;2.92;;;;;;;;;;2048504;29;20114;-81
2021/11/13 06:29:04;;;;;;;2.35;2.10;;;;;;;;;;2044943;28;20031;-81
2021/11/13 06:30:23;;;;;;;5.43;2.35;;;;;;;;;;2049714;28;20137;-81
2021/11/13 06:31:41;;;;;;;5.35;2.30;;;;;;;;;;2044655;28;20031;-82
2021/11/13 06:33:00;;;;;;;2.83;2.63;;;;;;;;;;2049141;28;20073;-81
2021/11/13 06:34:19;;;;;;;3.55;2.53;;;;;;;;;;2047005;28;20024;-81
2021/11/13 06:35:38;;;;;;;2.55;2.35;;;;;;;;;;2042790;28;20106;-81
2021/11/13 06:36:57;;;;;;;2.72;2.50;;;;;;;;;;2045557;28;20411;-81
2021/11/13 06:38:16;;;;;;;2.92;2.47;;;;;;;;;;2045839;28;20020;-81
2021/11/13 06:39:36;;;;;;;2.47;2.28;;;;;;;;;;2044507;28;20031;-81
2021/11/13 06:40:54;;;;;;;2.78;2.35;;;;;;;;;;2046256;28;20487;-81
2021/11/13 06:42:13;;;;;;;3.08;2.30;;;;;;;;;;2043611;28;20027;-81
2021/11/13 06:43:32;;;;;;;4.00;2.30;;;;;;;;;;2047805;28;20031;-81
2021/11/13 06:44:51;;;;;;;3.03;2.05;;;;;;;;;;2047317;28;20028;-81
2021/11/13 06:46:10;;;;;;;4.45;2.20;;;;;;;;;;2047597;28;20460;-81
2021/11/13 06:47:29;;;;;;;2.17;1.98;;;;;;;;;;2045578;28;20035;-81
2021/11/13 06:48:48;;;;;;;5.15;2.72;;;;;;;;;;2046347;28;20063;-80
2021/11/13 06:50:09;;;;;;;2.75;2.50;;;;;;;;;;2046962;28;20039;-82
2021/11/13 06:51:28;;;;;;;2.92;1.95;;;;;;;;;;2051170;28;20016;-81
2021/11/13 06:52:47;;;;;;;3.50;2.50;;;;;;;;;;2044568;28;20495;-80
2021/11/13 06:54:06;;;;;;;2.92;2.13;;;;;;;;;;2050216;28;20506;-81
2021/11/13 06:55:24;;;;;;;2.80;1.90;;;;;;;;;;2045604;28;20114;-81
2021/11/13 06:56:43;;;;;;;2.45;2.10;;;;;;;;;;2046304;28;20461;-81
2021/11/13 06:58:02;;;;;;;2.35;2.25;;;;;;;;;;2046615;29;20060;-81
2021/11/13 06:59:21;;;;;;;2.58;2.22;;;;;;;;;;2047057;28;20036;-81
2021/11/13 07:00:39;;;;;;;2.42;2.22;;;;;;;;;;2050998;28;20032;-82
2021/11/13 07:01:59;;;;;;;3.70;1.95;;;;;;;;;;2046372;28;20035;-81
2021/11/13 07:03:18;;;;;;;2.20;2.00;;;;;;;;;;2047688;28;20028;-80
2021/11/13 07:04:37;;;;;;;2.30;2.03;;;;;;;;;;2049369;28;20468;-83
2021/11/13 07:05:56;;;;;;;5.47;2.25;;;;;;;;;;2043878;28;20043;-81
2021/11/13 07:07:15;;;;;;;5.65;2.33;;;;;;;;;;2047337;28;20027;-83
2021/11/13 07:08:34;;;;;;;3.47;1.92;;;;;;;;;;2043800;29;20063;-82
2021/11/13 07:09:53;;;;;;;2.65;2.45;;;;;;;;;;2046695;28;20111;-82
2021/11/13 07:11:11;;;;;;;2.15;1.58;;;;;;;;;;2045093;28;20381;-80
2021/11/13 07:12:30;;;;;;;3.35;2.25;;;;;;;;;;2050737;28;20051;-81
2021/11/13 07:13:49;;;;;;;5.68;2.38;;;;;;;;;;2048894;28;20027;-81
2021/11/13 07:15:08;;;;;;;2.65;2.10;;;;;;;;;;2049593;28;20511;-82
2021/11/13 07:16:27;;;;;;;4.18;2.25;;;;;;;;;;2046038;28;20423;-81
2021/11/13 07:17:46;;;;;;;3.35;1.95;;;;;;;;;;2047687;28;20110;-81
2021/11/13 07:19:05;;;;;;;3.47;1.88;;;;;;;;;;2046652;28;20032;-82
2021/11/13 07:20:24;;;;;;;3.08;1.90;;;;;;;;;;2045560;28;20047;-82
2021/11/13 07:21:43;;;;;;;2.38;1.67;;;;;;;;;;2055200;28;20035;-82
2021/11/13 07:23:03;;;;;;;4.63;2.00;;;;;;;;;;2052998;28;20096;-82
2021/11/13 07:24:22;;;;;;;2.35;2.15;;;;;;;;;;2048588;28;20522;-82
2021/11/13 07:25:41;;;;;;;3.92;1.73;;;;;;;;;;2046672;28;20507;-82
2021/11/13 07:27:00;;;;;;;4.13;2.20;;;;;;;;;;2046137;28;20110;-81
2021/11/13 07:28:21;;;;;;;4.78;1.90;;;;;;;;;;2044142;28;20035;-82
2021/11/13 07:29:47;;;;;;;3.75;2.15;;;;;;;;;;2046637;28;20068;-81
2021/11/13 07:31:07;;;;;;;2.17;1.98;;;;;;;;;;2045780;28;20466;-82
2021/11/13 07:32:26;;;;;;;2.72;2.22;;;;;;;;;;2054660;28;20039;-81
2021/11/13 07:33:47;;;;;;;2.75;1.88;;;;;;;;;;2047340;28;20526;-81
2021/11/13 07:35:06;;;;;;;3.67;2.22;;;;;;;;;;2060347;28;20035;-83
2021/11/13 07:36:25;;;;;;;2.05;1.90;;;;;;;;;;2040943;28;20542;-81
2021/11/13 07:37:44;;;;;;;3.08;2.20;;;;;;;;;;2046042;28;20067;-81
2021/11/13 07:39:03;;;;;;;2.72;2.40;;;;;;;;;;2046378;28;20032;-81
2021/11/13 07:40:23;;;;;;;5.95;2.85;;;;;;;;;;2046289;28;20114;-82
2021/11/13 07:41:42;;;;;;;2.78;2.20;;;;;;;;;;2045042;28;20040;-84
2021/11/13 07:43:00;;;;;;;3.53;2.38;;;;;;;;;;2042119;28;20051;-81
2021/11/13 07:44:19;;;;;;;3.33;2.80;;;;;;;;;;2043070;28;20032;-81
2021/11/13 07:45:38;;;;;;;6.40;3.20;;;;;;;;;;2047803;28;20039;-82
2021/11/13 07:46:57;;;;;;;14.07;6.38;;;;;;;;;;2045427;28;20146;-81
2021/11/13 07:48:16;;;;;;;13.13;4.97;;;;;;;;;;2048598;28;20024;-81
2021/11/13 07:49:35;;;;;;;2.70;2.50;;;;;;;;;;2049355;28;20507;-80
2021/11/13 07:50:53;;;;;;;2.72;2.00;;;;;;;;;;2047481;29;20036;-81
2021/11/13 07:52:12;;;;;;;4.07;2.05;;;;;;;;;;2043713;28;20162;-81
2021/11/13 07:53:31;;;;;;;2.50;2.08;;;;;;;;;;2042708;28;20090;-83
2021/11/13 07:54:50;;;;;;;2.67;2.10;;;;;;;;;;2045250;28;20026;-81